Time;durP1;ratioP1;P1;durP2;ratioP2;P2;SDS_P1;SDS_P2;PMS_P1;PMS_P2;Temp;Humidity;BMP_temperature;BMP_pressure;BME280_temperature;BME280_humidity;BME280_pressure;Samples;Min_cycle;Max_cycle;Signal;HPM_P1;HPM_P2
2022/09/25 00:01:22;;;;;;;5.47;1.13;;;12.90;99.90;;;;;;5071566;28;20185;-57
2022/09/25 00:03:48;;;;;;;5.15;1.17;;;12.90;99.90;;;;;;5071436;28;20238;-57
2022/09/25 00:06:16;;;;;;;4.45;1.33;;;12.90;99.90;;;;;;5071300;28;20635;-57
2022/09/25 00:08:42;;;;;;;6.00;1.47;;;12.80;99.90;;;;;;5070643;28;20215;-58
2022/09/25 00:11:14;;;;;;;3.78;1.30;;;12.90;99.90;;;;;;5071095;28;20198;-57
2022/09/25 00:13:40;;;;;;;5.23;1.40;;;12.90;99.90;;;;;;5069920;28;20169;-57
2022/09/25 00:16:08;;;;;;;6.13;1.60;;;12.80;99.90;;;;;;5069905;28;20217;-57
2022/09/25 00:21:18;;;;;;;10.17;2.00;;;12.80;99.90;;;;;;5071209;28;20230;-57
2022/09/25 00:23:44;;;;;;;4.97;1.77;;;12.80;99.90;;;;;;5070905;28;20181;-57
2022/09/25 00:26:12;;;;;;;4.70;1.87;;;12.80;99.90;;;;;;5070887;28;20218;-57
2022/09/25 00:28:39;;;;;;;8.23;2.00;;;12.80;99.90;;;;;;5070864;28;20651;-57
2022/09/25 00:31:06;;;;;;;7.18;2.20;;;12.70;99.90;;;;;;5071086;28;20177;-57
2022/09/25 00:33:33;;;;;;;9.20;2.30;;;11.70;99.90;;;;;;5071083;28;20173;-57
2022/09/25 00:36:04;;;;;;;5.43;2.40;;;12.70;99.90;;;;;;5070989;28;20172;-57
2022/09/25 00:38:30;;;;;;;4.23;2.40;;;12.70;99.90;;;;;;5070707;28;20220;-57
2022/09/25 00:40:57;;;;;;;11.13;2.97;;;12.70;99.90;;;;;;5070987;28;20369;-57
2022/09/25 00:43:55;;;;;;;9.05;2.50;;;12.60;99.90;;;;;;5070768;28;20627;-58
2022/09/25 00:46:41;;;;;;;8.77;2.63;;;12.60;99.90;;;;;;5074878;28;20181;-57
2022/09/25 00:49:14;;;;;;;8.77;3.33;;;12.50;99.90;;;;;;5070767;28;20196;-58
2022/09/25 00:51:56;;;;;;;7.90;3.10;;;12.50;99.90;;;;;;5077980;28;20180;-58
2022/09/25 00:54:26;;;;;;;10.43;2.40;;;12.40;99.90;;;;;;5071813;28;20195;-57
2022/09/25 00:56:55;;;;;;;14.23;2.70;;;12.40;99.90;;;;;;5076438;28;20207;-58
2022/09/25 00:59:28;;;;;;;8.18;2.17;;;12.50;99.90;;;;;;5090772;28;20171;-58
2022/09/25 01:01:54;;;;;;;8.68;1.90;;;12.40;99.90;;;;;;5090745;28;20171;-58
2022/09/25 01:04:21;;;;;;;5.30;1.73;;;12.40;99.90;;;;;;5090977;28;20179;-58
2022/09/25 01:06:48;;;;;;;4.93;1.67;;;12.40;99.90;;;;;;5090887;28;20164;-57
2022/09/25 01:09:14;;;;;;;7.20;2.10;;;12.30;99.90;;;;;;5090713;28;20171;-57
2022/09/25 01:11:40;;;;;;;6.20;2.20;;;12.20;99.90;;;;;;5090656;28;20168;-57
2022/09/25 01:14:07;;;;;;;7.93;1.83;;;12.20;99.90;;;;;;5090757;28;20164;-58
2022/09/25 01:16:38;;;;;;;7.73;2.00;;;12.20;99.90;;;;;;5090653;28;20172;-57
2022/09/25 01:19:45;;;;;;;7.83;2.10;;;12.10;99.90;;;;;;5091231;28;20179;-57
2022/09/25 01:22:31;;;;;;;5.90;1.60;;;12.10;99.90;;;;;;5082294;28;20192;-57
2022/09/25 01:25:10;;;;;;;9.67;1.60;;;12.10;99.90;;;;;;5094507;28;20323;-57
2022/09/25 01:27:48;;;;;;;9.23;2.10;;;12.10;99.90;;;;;;5094646;28;20179;-58
2022/09/25 01:30:18;;;;;;;5.60;1.70;;;12.00;99.90;;;;;;5094380;28;20166;-57
2022/09/25 01:32:50;;;;;;;7.20;2.17;;;12.10;99.90;;;;;;5094411;28;20168;-57
2022/09/25 01:35:30;;;;;;;13.80;2.07;;;12.00;99.90;;;;;;5094337;28;20171;-57
2022/09/25 01:38:39;;;;;;;7.07;1.93;;;12.00;99.90;;;;;;5094134;28;20226;-57
2022/09/25 01:41:21;;;;;;;4.90;1.83;;;12.00;99.90;;;;;;5088424;28;20186;-57
2022/09/25 01:44:01;;;;;;;8.57;2.13;;;12.00;99.90;;;;;;5094391;28;20485;-57
2022/09/25 01:46:43;;;;;;;11.00;1.70;;;12.00;99.90;;;;;;5094125;28;20164;-57
2022/09/25 01:49:18;;;;;;;5.07;1.97;;;11.90;99.90;;;;;;5093915;28;20767;-57
2022/09/25 01:51:50;;;;;;;8.23;1.70;;;11.80;99.90;;;;;;5094241;28;20262;-57
2022/09/25 01:54:33;;;;;;;8.10;1.87;;;11.80;99.90;;;;;;5093949;28;20221;-57
2022/09/25 01:57:04;;;;;;;5.20;2.13;;;11.70;99.90;;;;;;5093748;28;20222;-57
2022/09/25 01:59:43;;;;;;;6.07;1.87;;;11.70;99.90;;;;;;5093551;28;20202;-57
2022/09/25 02:02:13;;;;;;;6.87;1.87;;;11.60;99.90;;;;;;5093869;28;20698;-57
2022/09/25 02:04:43;;;;;;;4.90;1.60;;;11.80;99.90;;;;;;5093930;28;20183;-57
2022/09/25 02:07:15;;;;;;;9.17;1.70;;;11.50;99.90;;;;;;5093672;28;20171;-57
2022/09/25 02:09:48;;;;;;;5.13;1.87;;;11.50;99.90;;;;;;5109383;28;20172;-57
2022/09/25 02:12:20;;;;;;;5.57;1.93;;;11.60;99.90;;;;;;5093660;28;20172;-57
2022/09/25 02:14:52;;;;;;;6.27;2.00;;;11.40;99.90;;;;;;5093690;28;20180;-57
2022/09/25 02:23:03;;;;;;;9.53;1.90;;;11.30;99.90;;;;;;5093751;28;20752;-57
2022/09/25 02:25:41;;;;;;;5.27;2.13;;;11.20;99.90;;;;;;5093423;28;20165;-57
2022/09/25 02:28:07;;;;;;;4.57;1.50;;;11.20;99.90;;;;;;5093297;28;20333;-57
2022/09/25 02:30:33;;;;;;;7.03;2.03;;;11.00;99.90;;;;;;5092943;28;20175;-57
2022/09/25 02:32:58;;;;;;;8.70;1.83;;;11.20;99.90;;;;;;5093112;28;20657;-57
2022/09/25 02:35:24;;;;;;;6.30;1.80;;;11.00;99.90;;;;;;5093392;28;20172;-57
2022/09/25 02:37:52;;;;;;;9.77;2.17;;;11.10;99.90;;;;;;5092941;28;20246;-57
2022/09/25 02:40:19;;;;;;;6.97;1.97;;;11.10;99.90;;;;;;5093064;28;20164;-57
2022/09/25 02:42:58;;;;;;;9.80;1.90;;;11.10;99.90;;;;;;5093097;28;20180;-57
2022/09/25 02:45:41;;;;;;;7.53;2.10;;;11.00;99.90;;;;;;5092926;28;20252;-57
2022/09/25 02:48:15;;;;;;;10.77;1.87;;;11.00;99.90;;;;;;5092948;28;20258;-57
2022/09/25 02:51:09;;;;;;;4.93;1.93;;;10.90;99.90;;;;;;5092906;28;20163;-57
2022/09/25 02:53:43;;;;;;;6.23;1.80;;;10.90;99.90;;;;;;5092824;28;20176;-57
2022/09/25 02:56:16;;;;;;;7.43;2.20;;;10.80;99.90;;;;;;5092923;28;20160;-57
2022/09/25 02:58:58;;;;;;;4.97;2.17;;;10.90;99.90;;;;;;5092799;28;20219;-57
2022/09/25 03:01:27;;;;;;;10.63;2.00;;;11.00;99.90;;;;;;5080524;28;20728;-57
2022/09/25 03:03:56;;;;;;;7.60;1.80;;;10.90;99.90;;;;;;5092581;28;20184;-58
2022/09/25 03:06:23;;;;;;;6.73;2.00;;;10.70;99.90;;;;;;5092503;28;20164;-58
2022/09/25 03:08:55;;;;;;;3.53;1.57;;;10.70;99.90;;;;;;5092642;28;20172;-58
2022/09/25 03:11:22;;;;;;;7.20;1.93;;;10.60;99.90;;;;;;5092652;28;20306;-58
2022/09/25 03:13:59;;;;;;;7.63;2.23;;;10.60;99.90;;;;;;5092380;28;20168;-57
2022/09/25 03:16:45;;;;;;;5.47;1.73;;;10.60;99.90;;;;;;5092509;28;20178;-58
2022/09/25 03:19:12;;;;;;;11.20;2.10;;;10.40;99.90;;;;;;5092327;28;20621;-58
2022/09/25 03:21:38;;;;;;;5.43;2.10;;;;;;;;;;5092491;28;20176;-58
2022/09/25 03:24:04;;;;;;;6.60;2.33;;;10.40;99.90;;;;;;5092323;28;20715;-58
2022/09/25 03:26:30;;;;;;;10.27;2.03;;;10.30;99.90;;;;;;5092255;28;20166;-58
2022/09/25 03:29:01;;;;;;;4.87;1.90;;;10.20;99.90;;;;;;5092080;28;20259;-58
2022/09/25 03:31:28;;;;;;;8.53;2.10;;;10.30;99.90;;;;;;5092177;28;20172;-58
2022/09/25 03:33:55;;;;;;;8.73;2.10;;;10.60;99.90;;;;;;5092236;28;20190;-58
2022/09/25 03:36:23;;;;;;;10.00;2.17;;;10.30;99.90;;;;;;5091928;28;20164;-58
2022/09/25 03:38:51;;;;;;;5.03;2.07;;;10.30;99.90;;;;;;5085877;28;20221;-58
2022/09/25 03:41:21;;;;;;;6.17;2.03;;;10.10;99.90;;;;;;5075345;28;20624;-58
2022/09/25 03:43:50;;;;;;;5.20;1.80;;;10.20;99.90;;;;;;5072945;28;20172;-58
2022/09/25 03:46:20;;;;;;;6.60;2.30;;;10.20;99.90;;;;;;5092005;28;20241;-58
2022/09/25 03:48:46;;;;;;;7.30;2.27;;;10.20;99.90;;;;;;5091759;28;20172;-58
2022/09/25 03:51:13;;;;;;;5.97;1.93;;;;;;;;;;5091805;28;20187;-58
2022/09/25 03:53:39;;;;;;;11.40;2.47;;;10.10;99.90;;;;;;5091618;28;20626;-58
2022/09/25 03:56:11;;;;;;;9.90;2.40;;;10.10;99.90;;;;;;5092026;28;20221;-58
2022/09/25 03:58:37;;;;;;;4.83;2.57;;;10.10;99.90;;;;;;5091509;28;20216;-58
2022/09/25 04:01:03;;;;;;;7.27;2.57;;;9.90;99.90;;;;;;5091829;28;20182;-58
2022/09/25 04:03:31;;;;;;;4.70;2.00;;;9.90;99.90;;;;;;5091550;28;20182;-58
2022/09/25 04:05:59;;;;;;;8.20;2.40;;;9.90;99.90;;;;;;5091521;28;20255;-58
2022/09/25 04:08:26;;;;;;;5.03;1.97;;;9.90;99.90;;;;;;5091481;28;20649;-58
2022/09/25 04:10:55;;;;;;;5.30;2.23;;;9.80;99.90;;;;;;5091380;28;20171;-58
2022/09/25 04:13:21;;;;;;;6.60;1.90;;;9.70;99.90;;;;;;5091777;28;20329;-58
2022/09/25 04:15:47;;;;;;;9.20;2.40;;;9.70;99.90;;;;;;5091384;28;20228;-58
2022/09/25 04:18:13;;;;;;;5.47;2.43;;;9.50;99.90;;;;;;5091415;28;20207;-58
2022/09/25 04:20:39;;;;;;;7.23;2.10;;;9.30;99.90;;;;;;5091295;28;20191;-58
2022/09/25 04:23:05;;;;;;;5.00;2.20;;;9.20;99.90;;;;;;5091174;28;20176;-58
2022/09/25 04:25:30;;;;;;;8.10;2.10;;;9.10;99.90;;;;;;5091297;28;20442;-58
2022/09/25 04:27:57;;;;;;;6.57;2.03;;;9.00;99.90;;;;;;5091458;28;20168;-58
2022/09/25 04:30:24;;;;;;;3.23;1.73;;;9.00;99.90;;;;;;5091434;28;20570;-58
2022/09/25 04:35:34;;;;;;;6.53;2.37;;;9.00;99.90;;;;;;5091331;28;20186;-58
2022/09/25 04:38:00;;;;;;;7.83;2.50;;;9.10;99.90;;;;;;5090785;28;20223;-58
2022/09/25 04:40:27;;;;;;;5.80;2.33;;;9.00;99.90;;;;;;5091252;28;20186;-58
2022/09/25 04:43:00;;;;;;;4.77;2.17;;;9.00;99.90;;;;;;5091054;28;20184;-58
2022/09/25 04:45:26;;;;;;;5.87;2.47;;;9.00;99.90;;;;;;5090971;28;20213;-62
2022/09/25 04:47:57;;;;;;;5.63;2.30;;;9.10;99.90;;;;;;5091028;28;20171;-58
2022/09/25 04:50:24;;;;;;;7.57;2.40;;;;;;;;;;5090938;28;20168;-59
2022/09/25 04:52:50;;;;;;;7.80;2.40;;;;;;;;;;5091348;28;20179;-58
2022/09/25 04:55:23;;;;;;;6.17;2.20;;;9.10;99.90;;;;;;5095048;28;20170;-58
2022/09/25 04:57:59;;;;;;;6.93;2.30;;;9.20;99.90;;;;;;5094936;28;20237;-58
2022/09/25 05:00:29;;;;;;;9.27;2.67;;;9.20;99.90;;;;;;5095024;28;20176;-58
2022/09/25 05:02:55;;;;;;;8.47;2.40;;;;;;;;;;5094859;28;20176;-58
2022/09/25 05:05:20;;;;;;;5.93;2.60;;;9.20;99.90;;;;;;5094964;28;20674;-59
2022/09/25 05:07:54;;;;;;;5.77;2.30;;;9.10;99.90;;;;;;5076725;28;20936;-59
2022/09/25 05:10:21;;;;;;;5.00;2.67;;;9.30;99.90;;;;;;5110477;28;20179;-58
2022/09/25 05:12:47;;;;;;;6.63;2.50;;;9.20;99.90;;;;;;5094758;28;20168;-58
2022/09/25 05:15:13;;;;;;;13.20;2.43;;;9.20;99.90;;;;;;5094787;28;20263;-58
2022/09/25 05:17:38;;;;;;;6.33;2.37;;;9.20;99.90;;;;;;5094547;28;20207;-58
2022/09/25 05:20:04;;;;;;;11.70;2.70;;;8.90;99.90;;;;;;5094844;28;20533;-58
2022/09/25 05:22:30;;;;;;;10.93;2.50;;;9.10;99.90;;;;;;5094870;28;20175;-58
2022/09/25 05:24:56;;;;;;;8.60;2.47;;;9.10;99.90;;;;;;5094553;28;20186;-59
2022/09/25 05:27:22;;;;;;;5.17;2.33;;;9.10;99.90;;;;;;5094642;28;20180;-58
2022/09/25 05:29:48;;;;;;;6.17;2.20;;;9.10;99.90;;;;;;5094554;28;20172;-58
2022/09/25 05:32:14;;;;;;;4.47;2.27;;;9.10;99.90;;;;;;5094441;28;20204;-58
2022/09/25 05:34:40;;;;;;;4.70;2.30;;;9.10;99.90;;;;;;5094475;28;20529;-58
2022/09/25 05:37:06;;;;;;;6.30;2.23;;;9.10;99.90;;;;;;5094089;28;20216;-58
2022/09/25 05:39:31;;;;;;;7.10;2.73;;;9.10;99.90;;;;;;5094333;28;20182;-58
2022/09/25 05:41:57;;;;;;;7.10;2.53;;;9.10;99.90;;;;;;5094275;28;20172;-58
2022/09/25 05:44:23;;;;;;;6.23;2.17;;;8.90;99.90;;;;;;5094253;28;20174;-58
2022/09/25 05:46:49;;;;;;;8.43;2.60;;;8.70;99.90;;;;;;5093201;28;20182;-58
2022/09/25 05:49:15;;;;;;;4.97;2.17;;;;;;;;;;5077512;28;20180;-59
2022/09/25 05:51:41;;;;;;;6.43;2.37;;;8.60;99.90;;;;;;5073895;28;20160;-58
2022/09/25 05:54:06;;;;;;;4.93;2.57;;;8.60;99.90;;;;;;5073672;28;20179;-58
2022/09/25 05:56:32;;;;;;;7.10;2.33;;;8.50;99.90;;;;;;5073784;28;20173;-58
2022/09/25 05:58:58;;;;;;;6.53;2.57;;;;;;;;;;5073572;28;20605;-58
2022/09/25 06:01:24;;;;;;;9.17;2.70;;;8.40;99.90;;;;;;5073521;28;20180;-58
2022/09/25 06:03:50;;;;;;;7.67;2.93;;;8.40;99.90;;;;;;5073483;28;20212;-58
2022/09/25 06:06:16;;;;;;;9.97;2.60;;;8.30;99.90;;;;;;5072837;28;20171;-58
2022/09/25 06:08:41;;;;;;;10.73;2.70;;;8.30;99.90;;;;;;5073450;28;20241;-58
2022/09/25 06:11:07;;;;;;;11.50;2.57;;;8.20;99.90;;;;;;5073293;28;20662;-57
2022/09/25 06:13:33;;;;;;;12.20;2.60;;;8.30;99.90;;;;;;5073469;28;20177;-57
2022/09/25 06:15:59;;;;;;;6.07;2.43;;;8.20;99.90;;;;;;5073202;28;20666;-57
2022/09/25 06:18:25;;;;;;;4.77;2.37;;;8.40;99.90;;;;;;5073211;28;20516;-57
2022/09/25 06:20:59;;;;;;;5.40;2.53;;;8.10;99.90;;;;;;5073241;28;20173;-57
2022/09/25 06:23:24;;;;;;;6.30;2.83;;;8.10;99.90;;;;;;5073351;28;20180;-57
2022/09/25 06:25:50;;;;;;;8.97;3.03;;;8.10;99.90;;;;;;5073235;28;20190;-58
2022/09/25 06:28:15;;;;;;;4.90;2.40;;;8.10;99.90;;;;;;5073087;28;20165;-57
2022/09/25 06:30:41;;;;;;;6.20;2.73;;;8.20;99.90;;;;;;5073101;28;20172;-57
2022/09/25 06:33:11;;;;;;;4.83;2.37;;;8.30;99.90;;;;;;5073199;28;20168;-57
2022/09/25 06:35:45;;;;;;;5.10;2.40;;;8.10;99.90;;;;;;5073016;28;20252;-60
2022/09/25 06:38:12;;;;;;;6.97;2.43;;;8.20;99.90;;;;;;5072449;28;20237;-58
2022/09/25 06:40:39;;;;;;;7.50;3.20;;;8.20;99.90;;;;;;5072790;28;20200;-58
2022/09/25 06:43:06;;;;;;;6.57;2.90;;;8.30;99.90;;;;;;5072692;28;20180;-58
2022/09/25 06:45:33;;;;;;;9.27;3.53;;;8.30;99.90;;;;;;5073037;28;20173;-58
2022/09/25 06:48:04;;;;;;;8.53;2.40;;;8.40;99.90;;;;;;5072833;28;20180;-58
2022/09/25 06:50:50;;;;;;;5.83;2.60;;;8.40;99.90;;;;;;5072669;28;20709;-58
2022/09/25 06:53:17;;;;;;;8.83;2.97;;;8.50;99.90;;;;;;5072537;28;20215;-58
2022/09/25 06:55:46;;;;;;;12.83;2.67;;;8.60;99.90;;;;;;5072570;28;20491;-58
2022/09/25 06:58:18;;;;;;;10.13;2.43;;;8.70;99.90;;;;;;5072555;28;20211;-58
2022/09/25 07:00:52;;;;;;;10.40;3.37;;;9.10;99.90;;;;;;5072512;28;20165;-58
2022/09/25 07:06:04;;;;;;;9.27;2.80;;;9.00;99.90;;;;;;5072759;28;20532;-58
2022/09/25 07:08:30;;;;;;;10.37;2.97;;;9.10;99.90;;;;;;5072250;28;20663;-58
2022/09/25 07:10:57;;;;;;;5.40;2.53;;;9.20;99.90;;;;;;5071224;28;20168;-58
2022/09/25 07:13:28;;;;;;;6.27;2.33;;;9.30;99.90;;;;;;5072064;28;20764;-59
2022/09/25 07:15:59;;;;;;;8.47;3.07;;;9.40;99.90;;;;;;5071989;28;20168;-58
2022/09/25 07:18:26;;;;;;;6.60;2.77;;;9.50;99.90;;;;;;5071157;28;20223;-58
2022/09/25 07:20:52;;;;;;;7.47;2.33;;;9.60;99.90;;;;;;5072516;28;20188;-58
2022/09/25 07:23:20;;;;;;;10.87;2.83;;;9.60;99.90;;;;;;5072108;28;20256;-58
2022/09/25 07:25:46;;;;;;;8.37;2.83;;;9.80;99.90;;;;;;5071941;28;20255;-58
2022/09/25 07:28:13;;;;;;;4.73;2.33;;;9.60;99.90;;;;;;5071865;28;20169;-58
2022/09/25 07:30:40;;;;;;;9.30;2.97;;;9.80;99.90;;;;;;5070733;28;20168;-59
2022/09/25 07:33:06;;;;;;;8.30;3.03;;;9.80;99.90;;;;;;5071955;28;20192;-59
2022/09/25 07:35:35;;;;;;;10.90;2.63;;;9.90;99.90;;;;;;5071988;28;20545;-59
2022/09/25 07:38:02;;;;;;;8.20;2.83;;;9.90;99.90;;;;;;5071260;28;20220;-59
2022/09/25 07:40:32;;;;;;;10.03;2.90;;;9.90;99.90;;;;;;5071748;28;20171;-59
2022/09/25 07:43:01;;;;;;;10.27;2.70;;;9.90;99.90;;;;;;5071386;28;20193;-59
2022/09/25 07:45:28;;;;;;;11.03;2.87;;;9.90;99.90;;;;;;5070333;28;20854;-57
2022/09/25 07:47:57;;;;;;;8.53;2.70;;;10.00;99.90;;;;;;5070247;28;20173;-57
2022/09/25 07:50:23;;;;;;;7.93;3.00;;;10.10;99.90;;;;;;5074335;28;20187;-57
2022/09/25 07:52:49;;;;;;;7.17;2.40;;;10.30;99.90;;;;;;5088319;28;20172;-57
2022/09/25 07:55:15;;;;;;;6.17;2.50;;;10.30;99.90;;;;;;5088364;28;20631;-57
2022/09/25 07:57:43;;;;;;;8.53;3.10;;;10.40;99.90;;;;;;5071049;28;20740;-58
2022/09/25 08:00:10;;;;;;;6.30;2.50;;;10.60;99.90;;;;;;5071189;28;20172;-58
2022/09/25 08:02:36;;;;;;;7.23;2.67;;;10.80;99.90;;;;;;5069979;28;20177;-58
2022/09/25 08:05:02;;;;;;;13.00;2.90;;;10.90;99.90;;;;;;5071302;28;20175;-58
2022/09/25 08:07:28;;;;;;;9.90;2.93;;;11.20;99.90;;;;;;5071417;28;20352;-58
2022/09/25 08:09:53;;;;;;;6.87;2.53;;;11.20;99.90;;;;;;5071083;28;20230;-57
2022/09/25 08:12:23;;;;;;;10.13;2.83;;;11.30;99.90;;;;;;5071119;28;20631;-58
2022/09/25 08:14:49;;;;;;;7.23;2.50;;;11.50;99.90;;;;;;5071045;28;20192;-58
2022/09/25 08:17:14;;;;;;;5.53;2.63;;;11.60;99.90;;;;;;5071069;28;20286;-58
2022/09/25 08:19:40;;;;;;;14.77;2.70;;;11.80;99.90;;;;;;5071001;28;20958;-58
2022/09/25 08:22:05;;;;;;;6.83;2.63;;;11.90;99.90;;;;;;5071135;28;20645;-58
2022/09/25 08:24:31;;;;;;;9.00;2.40;;;12.10;99.90;;;;;;5071022;28;20177;-57
2022/09/25 08:26:57;;;;;;;8.17;2.40;;;12.80;99.90;;;;;;5070859;28;20179;-57
2022/09/25 08:29:23;;;;;;;7.83;2.13;;;15.20;99.90;;;;;;5070657;28;20267;-57
2022/09/25 08:31:49;;;;;;;6.82;1.83;;;17.30;99.90;;;;;;5070499;28;20274;-58
2022/09/25 08:34:15;;;;;;;6.80;2.00;;;19.00;99.90;;;;;;5070936;28;20278;-56
2022/09/25 08:36:41;;;;;;;7.47;1.80;;;19.50;99.90;;;;;;5070529;28;20262;-58
2022/09/25 08:39:08;;;;;;;5.22;2.00;;;18.20;99.90;;;;;;5070791;28;20200;-58
2022/09/25 08:41:46;;;;;;;4.90;1.50;;;17.70;99.90;;;;;;5070827;28;20225;-58
2022/09/25 08:44:31;;;;;;;6.05;1.67;;;18.10;99.90;;;;;;5070799;28;20176;-58
2022/09/25 08:50:09;;;;;;;9.43;1.50;;;16.70;99.90;;;;;;5070784;28;20175;-58
2022/09/25 08:52:35;;;;;;;6.88;1.85;;;16.10;99.90;;;;;;5070589;28;20226;-58
2022/09/25 08:55:01;;;;;;;5.10;1.40;;;15.90;99.90;;;;;;5086092;28;20200;-57
2022/09/25 08:57:39;;;;;;;4.82;1.42;;;15.50;99.90;;;;;;5070368;28;20698;-58
2022/09/25 09:00:16;;;;;;;8.65;1.63;;;15.80;99.90;;;;;;5070403;28;20251;-57
2022/09/25 09:02:46;;;;;;;6.22;1.38;;;16.10;99.90;;;;;;5070350;28;20179;-57
2022/09/25 09:05:23;;;;;;;5.70;1.20;;;16.80;99.90;;;;;;5070515;28;20168;-58
2022/09/25 09:08:24;;;;;;;7.78;1.70;;;16.10;99.90;;;;;;5070542;28;20247;-58
2022/09/25 09:11:16;;;;;;;7.97;1.10;;;15.70;99.90;;;;;;5070571;28;20200;-58
2022/09/25 09:13:51;;;;;;;3.20;0.80;;;15.50;99.90;;;;;;5070536;28;20529;-58
2022/09/25 09:16:50;;;;;;;4.57;1.08;;;15.50;99.90;;;;;;5070584;28;20237;-58
2022/09/25 09:19:15;;;;;;;3.25;0.82;;;15.40;99.90;;;;;;5033158;28;20221;-58
2022/09/25 09:22:08;;;;;;;6.28;1.08;;;15.40;99.90;;;;;;5085844;28;20215;-58
2022/09/25 09:24:53;;;;;;;4.03;1.25;;;15.40;99.90;;;;;;5070364;28;20180;-58
2022/09/25 09:27:41;;;;;;;8.65;1.15;;;15.60;99.90;;;;;;5070451;28;20196;-58
2022/09/25 09:30:18;;;;;;;3.35;0.95;;;15.80;99.90;;;;;;5070478;28;20180;-58
2022/09/25 09:32:49;;;;;;;4.78;0.90;;;15.70;99.90;;;;;;5070314;28;20180;-59
2022/09/25 09:35:52;;;;;;;7.13;1.23;;;15.60;99.90;;;;;;5070261;28;20172;-58
2022/09/25 09:38:18;;;;;;;3.97;1.05;;;;;;;;;;5070126;28;20682;-58
2022/09/25 09:41:11;;;;;;;2.47;0.80;;;16.60;99.90;;;;;;5071623;28;20169;-58
2022/09/25 09:44:03;;;;;;;4.68;0.70;;;16.80;99.90;;;;;;5073657;28;20663;-58
2022/09/25 09:46:47;;;;;;;7.25;1.00;;;18.00;99.90;;;;;;5071746;28;20195;-58
2022/09/25 09:49:28;;;;;;;6.63;1.50;;;18.50;99.90;;;;;;5073884;28;20256;-58
2022/09/25 09:52:08;;;;;;;5.32;1.60;;;18.60;99.90;;;;;;5073425;28;20165;-58
2022/09/25 09:54:37;;;;;;;3.90;1.10;;;18.70;99.90;;;;;;5073445;28;20169;-59
2022/09/25 09:57:14;;;;;;;4.45;1.20;;;18.60;99.90;;;;;;5073621;28;20700;-58
2022/09/25 09:59:47;;;;;;;8.23;1.38;;;19.10;99.90;;;;;;5076304;28;20216;-59
2022/09/25 10:02:39;;;;;;;8.20;1.27;;;18.80;99.90;;;;;;5089291;28;20178;-58
2022/09/25 10:05:21;;;;;;;13.32;2.30;;;19.00;99.90;;;;;;5087084;28;20176;-58
2022/09/25 10:07:48;;;;;;;9.65;1.40;;;19.00;99.90;;;;;;5073293;28;20160;-58
2022/09/25 10:10:15;;;;;;;4.05;1.20;;;19.10;99.90;;;;;;5073481;28;20164;-59
2022/09/25 10:13:05;;;;;;;7.18;1.10;;;19.40;99.90;;;;;;5073182;28;20183;-58
2022/09/25 10:15:51;;;;;;;8.63;1.17;;;19.60;99.90;;;;;;5073173;28;20511;-59
2022/09/25 10:18:19;;;;;;;6.28;1.27;;;20.20;99.90;;;;;;5073235;28;20209;-59
2022/09/25 10:20:58;;;;;;;3.17;1.05;;;20.50;99.90;;;;;;5073268;28;20164;-58
2022/09/25 10:23:31;;;;;;;4.82;1.05;;;20.80;99.90;;;;;;5073090;28;20169;-58
2022/09/25 10:25:57;;;;;;;3.60;1.02;;;20.60;99.90;;;;;;5072845;28;20176;-58
2022/09/25 10:28:35;;;;;;;3.88;1.02;;;20.20;99.90;;;;;;5073162;28;20176;-58
2022/09/25 10:31:04;;;;;;;3.45;1.00;;;20.20;99.90;;;;;;5072994;28;20173;-58
2022/09/25 10:33:31;;;;;;;3.63;0.85;;;20.80;99.90;;;;;;5072693;28;20180;-58
2022/09/25 10:35:57;;;;;;;4.07;0.88;;;20.70;99.90;;;;;;5072734;28;20704;-58
2022/09/25 10:38:31;;;;;;;4.22;1.10;;;21.20;99.90;;;;;;5072488;28;20220;-59
2022/09/25 10:41:20;;;;;;;3.88;0.80;;;21.00;99.90;;;;;;5072762;28;20182;-59
2022/09/25 10:43:55;;;;;;;4.75;1.00;;;21.10;99.90;;;;;;5067162;28;20188;-59
2022/09/25 10:52:09;;;;;;;4.03;1.35;;;22.60;99.90;;;;;;5072400;28;20187;-58
2022/09/25 10:54:35;;;;;;;3.50;1.20;;;23.20;99.90;;;;;;5072551;28;20171;-58
2022/09/25 10:57:33;;;;;;;5.63;1.45;;;23.70;99.90;;;;;;5072613;28;20466;-59
2022/09/25 11:00:00;;;;;;;4.75;1.33;;;24.80;99.90;;;;;;5072181;28;20281;-59
2022/09/25 11:02:40;;;;;;;5.28;1.02;;;24.20;99.90;;;;;;5072656;28;20177;-58
2022/09/25 11:05:15;;;;;;;5.05;1.08;;;23.40;99.90;;;;;;5072177;28;20160;-58
2022/09/25 11:07:51;;;;;;;3.88;1.05;;;22.80;99.90;;;;;;5072309;28;20279;-58
2022/09/25 11:10:28;;;;;;;3.45;1.10;;;22.90;99.90;;;;;;5072331;28;20202;-58
2022/09/25 11:12:55;;;;;;;2.90;0.88;;;22.70;99.90;;;;;;5072348;28;20156;-58
2022/09/25 11:15:24;;;;;;;7.30;1.10;;;22.50;99.90;;;;;;5072214;28;20176;-58
2022/09/25 11:17:53;;;;;;;2.92;0.70;;;22.90;99.90;;;;;;5071969;28;20208;-58
2022/09/25 11:20:30;;;;;;;2.60;0.80;;;22.90;99.90;;;;;;5072227;28;20176;-58
2022/09/25 11:23:18;;;;;;;3.10;1.10;;;22.60;99.90;;;;;;5072025;28;20229;-58
2022/09/25 11:26:04;;;;;;;3.00;0.80;;;22.50;99.90;;;;;;5071917;28;20200;-58
2022/09/25 11:28:34;;;;;;;3.92;0.90;;;21.10;99.90;;;;;;5071666;28;20184;-58
2022/09/25 11:31:13;;;;;;;3.10;0.90;;;21.10;99.90;;;;;;5071811;28;20639;-58
2022/09/25 11:33:48;;;;;;;5.22;0.95;;;21.50;99.90;;;;;;5071589;28;20195;-58
2022/09/25 11:36:38;;;;;;;2.63;0.70;;;21.90;99.90;;;;;;5071563;28;20580;-58
2022/09/25 11:42:46;;;;;;;4.60;0.70;;;22.50;99.90;;;;;;5071800;28;20218;-58
2022/09/25 11:45:46;;;;;;;1.92;0.68;;;22.40;99.90;;;;;;5067740;28;20196;-58
2022/09/25 11:48:34;;;;;;;3.38;0.75;;;22.90;99.90;;;;;;5071491;28;20702;-58
2022/09/25 11:51:21;;;;;;;2.80;0.65;;;22.70;99.90;;;;;;5071453;28;20191;-58
2022/09/25 11:54:05;;;;;;;6.32;0.98;;;22.50;99.90;;;;;;5071351;28;20172;-58
2022/09/25 11:56:37;;;;;;;2.92;0.80;;;22.70;99.90;;;;;;5071397;28;20324;-58
2022/09/25 11:59:21;;;;;;;1.77;0.60;;;23.00;99.90;;;;;;5071389;28;20208;-58
2022/09/25 12:02:18;;;;;;;6.30;0.85;;;21.90;99.90;;;;;;5071313;28;20172;-58
2022/09/25 12:05:22;;;;;;;2.88;1.00;;;21.70;99.90;;;;;;5071077;28;20164;-58
2022/09/25 12:08:51;;;;;;;3.45;0.90;;;21.60;99.90;;;;;;5074249;28;20244;-58
2022/09/25 12:11:26;;;;;;;2.95;0.73;;;21.20;99.90;;;;;;5048988;28;20204;-58
2022/09/25 12:14:02;;;;;;;6.20;1.52;;;20.60;99.90;;;;;;5048726;28;20216;-57
2022/09/25 12:16:46;;;;;;;2.30;1.02;;;20.80;99.90;;;;;;5066022;28;20181;-58
2022/09/25 12:19:25;;;;;;;3.10;0.90;;;20.70;99.90;;;;;;5071106;28;20294;-58
2022/09/25 12:22:04;;;;;;;2.72;1.00;;;21.00;99.90;;;;;;5071040;28;20259;-58
2022/09/25 12:24:39;;;;;;;6.35;0.98;;;21.10;99.90;;;;;;5070978;28;20183;-58
2022/09/25 12:27:30;;;;;;;4.35;0.88;;;21.10;99.90;;;;;;5071178;28;20176;-58
2022/09/25 12:30:17;;;;;;;4.03;0.85;;;20.90;99.90;;;;;;5070983;28;20511;-58
2022/09/25 12:33:24;;;;;;;3.75;0.80;;;20.80;99.90;;;;;;5071122;28;20188;-58
2022/09/25 12:36:14;;;;;;;2.03;0.55;;;20.60;99.90;;;;;;5070036;28;20196;-58
2022/09/25 12:38:54;;;;;;;1.63;0.80;;;20.00;99.90;;;;;;5070657;28;20317;-58
2022/09/25 12:41:48;;;;;;;4.05;0.95;;;20.40;99.90;;;;;;5070674;28;20651;-58
2022/09/25 12:44:46;;;;;;;5.38;0.88;;;20.10;99.90;;;;;;5070929;28;20169;-58
2022/09/25 12:47:26;;;;;;;4.72;1.20;;;20.00;99.90;;;;;;5062488;28;20326;-58
2022/09/25 12:50:08;;;;;;;5.43;1.20;;;19.60;99.90;;;;;;5070900;28;20654;-58
2022/09/25 12:52:39;;;;;;;3.60;1.20;;;19.30;99.90;;;;;;5086257;28;20221;-58
2022/09/25 12:55:24;;;;;;;6.18;1.17;;;19.50;99.90;;;;;;5070829;28;20172;-58
2022/09/25 12:58:05;;;;;;;4.93;1.20;;;19.60;99.90;;;;;;5070646;28;20257;-58
2022/09/25 13:00:32;;;;;;;3.58;1.13;;;19.70;99.90;;;;;;5070741;28;20295;-58
2022/09/25 13:03:10;;;;;;;5.70;1.10;;;19.80;99.90;;;;;;5070921;28;20184;-58
2022/09/25 13:05:44;;;;;;;4.00;1.00;;;19.80;99.90;;;;;;5070659;28;20177;-58
2022/09/25 13:08:26;;;;;;;4.70;0.90;;;20.20;99.90;;;;;;5070482;28;20171;-58
2022/09/25 13:10:56;;;;;;;1.83;0.63;;;20.40;99.90;;;;;;5070705;28;20301;-58
2022/09/25 13:13:25;;;;;;;3.15;0.80;;;20.70;99.90;;;;;;5070536;28;20245;-58
2022/09/25 13:15:56;;;;;;;5.45;1.23;;;20.60;99.90;;;;;;5074186;28;20171;-58
2022/09/25 13:18:24;;;;;;;5.25;1.13;;;20.20;99.90;;;;;;5074417;28;20686;-58
2022/09/25 13:20:54;;;;;;;4.00;0.95;;;20.10;99.90;;;;;;5074374;28;20264;-58
2022/09/25 13:23:31;;;;;;;3.88;1.00;;;19.80;99.90;;;;;;5074440;28;20257;-55
2022/09/25 13:26:17;;;;;;;3.35;1.33;;;19.50;99.90;;;;;;5074203;28;20161;-57
2022/09/25 13:29:13;;;;;;;3.95;1.50;;;19.00;99.90;;;;;;5074076;28;20241;-57
2022/09/25 13:31:43;;;;;;;4.97;1.23;;;18.80;99.90;;;;;;5072081;28;20647;-58
2022/09/25 13:34:13;;;;;;;6.57;1.70;;;18.50;99.90;;;;;;5073990;28;20228;-57
2022/09/25 13:36:47;;;;;;;4.22;1.42;;;18.30;99.90;;;;;;5074063;28;20184;-57
2022/09/25 13:42:28;;;;;;;4.60;1.40;;;17.90;99.90;;;;;;5074327;28;20259;-56
2022/09/25 13:45:05;;;;;;;3.58;1.13;;;18.00;99.90;;;;;;5073918;28;20180;-57
2022/09/25 13:47:31;;;;;;;11.38;1.58;;;17.90;99.90;;;;;;5073812;28;20175;-56
2022/09/25 13:50:18;;;;;;;3.08;0.82;;;17.90;99.90;;;;;;5073673;28;20623;-57